sensor_id;sensor_type;location;lat;lon;timestamp;P1;durP1;ratioP1;P2;durP2;ratioP2
25365;SDS011;13315;48.274;-1.900;2022-12-16T00:01:07;7.25;;;4.28;;
25365;SDS011;13315;48.274;-1.900;2022-12-16T00:03:34;10.30;;;4.82;;
25365;SDS011;13315;48.274;-1.900;2022-12-16T00:06:00;8.95;;;5.05;;
25365;SDS011;13315;48.274;-1.900;2022-12-16T00:08:28;13.57;;;5.25;;
25365;SDS011;13315;48.274;-1.900;2022-12-16T00:10:58;8.55;;;4.78;;
25365;SDS011;13315;48.274;-1.900;2022-12-16T00:13:24;9.70;;;5.38;;
25365;SDS011;13315;48.274;-1.900;2022-12-16T00:15:50;13.35;;;5.05;;
25365;SDS011;13315;48.274;-1.900;2022-12-16T00:18:17;8.07;;;5.30;;
25365;SDS011;13315;48.274;-1.900;2022-12-16T00:20:48;11.40;;;5.60;;
25365;SDS011;13315;48.274;-1.900;2022-12-16T00:23:14;12.23;;;4.68;;
25365;SDS011;13315;48.274;-1.900;2022-12-16T00:25:41;7.70;;;5.03;;
25365;SDS011;13315;48.274;-1.900;2022-12-16T00:28:07;8.77;;;5.03;;
25365;SDS011;13315;48.274;-1.900;2022-12-16T00:30:33;12.98;;;5.68;;
25365;SDS011;13315;48.274;-1.900;2022-12-16T00:32:59;6.00;;;4.40;;
25365;SDS011;13315;48.274;-1.900;2022-12-16T00:35:25;7.85;;;5.07;;
25365;SDS011;13315;48.274;-1.900;2022-12-16T00:37:52;9.82;;;5.60;;
25365;SDS011;13315;48.274;-1.900;2022-12-16T00:40:18;12.32;;;5.38;;
25365;SDS011;13315;48.274;-1.900;2022-12-16T00:42:44;14.48;;;5.35;;
25365;SDS011;13315;48.274;-1.900;2022-12-16T00:45:10;7.32;;;5.03;;
25365;SDS011;13315;48.274;-1.900;2022-12-16T00:47:36;7.80;;;5.68;;
25365;SDS011;13315;48.274;-1.900;2022-12-16T00:50:02;10.43;;;5.80;;
25365;SDS011;13315;48.274;-1.900;2022-12-16T00:52:28;8.38;;;5.13;;
25365;SDS011;13315;48.274;-1.900;2022-12-16T00:54:55;10.45;;;5.38;;
25365;SDS011;13315;48.274;-1.900;2022-12-16T00:57:21;9.77;;;5.75;;
25365;SDS011;13315;48.274;-1.900;2022-12-16T00:59:47;15.35;;;6.32;;
25365;SDS011;13315;48.274;-1.900;2022-12-16T01:02:14;11.23;;;5.20;;
25365;SDS011;13315;48.274;-1.900;2022-12-16T01:04:40;8.93;;;5.60;;
25365;SDS011;13315;48.274;-1.900;2022-12-16T01:07:06;7.05;;;5.65;;
25365;SDS011;13315;48.274;-1.900;2022-12-16T01:09:33;16.45;;;5.65;;
25365;SDS011;13315;48.274;-1.900;2022-12-16T01:11:59;9.35;;;5.53;;
25365;SDS011;13315;48.274;-1.900;2022-12-16T01:14:25;7.35;;;5.47;;
25365;SDS011;13315;48.274;-1.900;2022-12-16T01:16:51;9.80;;;5.95;;
25365;SDS011;13315;48.274;-1.900;2022-12-16T01:19:17;9.63;;;6.05;;
25365;SDS011;13315;48.274;-1.900;2022-12-16T01:21:43;11.15;;;5.85;;
25365;SDS011;13315;48.274;-1.900;2022-12-16T01:24:10;10.27;;;6.32;;
25365;SDS011;13315;48.274;-1.900;2022-12-16T01:26:36;8.13;;;5.90;;
25365;SDS011;13315;48.274;-1.900;2022-12-16T01:29:03;14.10;;;6.15;;
25365;SDS011;13315;48.274;-1.900;2022-12-16T01:31:29;10.75;;;5.70;;
25365;SDS011;13315;48.274;-1.900;2022-12-16T01:33:55;8.73;;;5.82;;
25365;SDS011;13315;48.274;-1.900;2022-12-16T01:36:21;12.48;;;5.57;;
25365;SDS011;13315;48.274;-1.900;2022-12-16T01:38:48;10.48;;;5.25;;
25365;SDS011;13315;48.274;-1.900;2022-12-16T01:41:15;11.88;;;6.65;;
25365;SDS011;13315;48.274;-1.900;2022-12-16T01:43:42;7.47;;;5.85;;
25365;SDS011;13315;48.274;-1.900;2022-12-16T01:46:13;8.90;;;5.95;;
25365;SDS011;13315;48.274;-1.900;2022-12-16T01:48:49;10.73;;;6.63;;
25365;SDS011;13315;48.274;-1.900;2022-12-16T01:51:59;15.57;;;6.03;;
25365;SDS011;13315;48.274;-1.900;2022-12-16T01:54:07;12.38;;;6.03;;
25365;SDS011;13315;48.274;-1.900;2022-12-16T01:56:35;8.95;;;5.88;;
25365;SDS011;13315;48.274;-1.900;2022-12-16T01:59:02;11.10;;;5.35;;
25365;SDS011;13315;48.274;-1.900;2022-12-16T02:01:29;8.93;;;5.40;;
25365;SDS011;13315;48.274;-1.900;2022-12-16T02:03:56;11.05;;;6.20;;
25365;SDS011;13315;48.274;-1.900;2022-12-16T02:06:23;12.98;;;6.03;;
25365;SDS011;13315;48.274;-1.900;2022-12-16T02:08:50;8.18;;;6.07;;
25365;SDS011;13315;48.274;-1.900;2022-12-16T02:19:31;7.15;;;6.00;;
25365;SDS011;13315;48.274;-1.900;2022-12-16T02:32:48;12.70;;;6.20;;
25365;SDS011;13315;48.274;-1.900;2022-12-16T02:37:51;7.18;;;5.65;;
25365;SDS011;13315;48.274;-1.900;2022-12-16T02:40:26;9.15;;;5.88;;
25365;SDS011;13315;48.274;-1.900;2022-12-16T02:42:54;13.40;;;6.40;;
25365;SDS011;13315;48.274;-1.900;2022-12-16T02:45:24;11.98;;;5.68;;
25365;SDS011;13315;48.274;-1.900;2022-12-16T02:52:43;10.52;;;6.07;;
25365;SDS011;13315;48.274;-1.900;2022-12-16T02:55:10;9.93;;;6.43;;
25365;SDS011;13315;48.274;-1.900;2022-12-16T03:00:11;10.10;;;6.30;;
25365;SDS011;13315;48.274;-1.900;2022-12-16T03:07:43;10.05;;;6.22;;
25365;SDS011;13315;48.274;-1.900;2022-12-16T03:10:11;9.73;;;5.55;;
25365;SDS011;13315;48.274;-1.900;2022-12-16T03:12:39;9.43;;;5.80;;
25365;SDS011;13315;48.274;-1.900;2022-12-16T03:15:08;12.32;;;6.47;;
25365;SDS011;13315;48.274;-1.900;2022-12-16T03:17:34;8.68;;;5.93;;
25365;SDS011;13315;48.274;-1.900;2022-12-16T03:20:04;7.75;;;6.05;;
25365;SDS011;13315;48.274;-1.900;2022-12-16T03:22:32;9.40;;;5.95;;
25365;SDS011;13315;48.274;-1.900;2022-12-16T03:24:59;9.20;;;6.50;;
25365;SDS011;13315;48.274;-1.900;2022-12-16T03:27:30;14.20;;;6.47;;
25365;SDS011;13315;48.274;-1.900;2022-12-16T03:30:01;9.48;;;6.30;;
25365;SDS011;13315;48.274;-1.900;2022-12-16T03:35:01;15.05;;;7.18;;
25365;SDS011;13315;48.274;-1.900;2022-12-16T03:37:31;13.70;;;6.85;;
25365;SDS011;13315;48.274;-1.900;2022-12-16T03:40:02;12.65;;;6.90;;
25365;SDS011;13315;48.274;-1.900;2022-12-16T03:44:56;15.60;;;7.22;;
25365;SDS011;13315;48.274;-1.900;2022-12-16T03:47:24;10.65;;;6.63;;
25365;SDS011;13315;48.274;-1.900;2022-12-16T03:49:50;10.70;;;8.00;;
25365;SDS011;13315;48.274;-1.900;2022-12-16T03:52:16;9.75;;;6.90;;
25365;SDS011;13315;48.274;-1.900;2022-12-16T03:54:42;13.02;;;6.57;;
25365;SDS011;13315;48.274;-1.900;2022-12-16T03:57:08;15.00;;;7.10;;
25365;SDS011;13315;48.274;-1.900;2022-12-16T03:59:34;9.43;;;7.55;;
25365;SDS011;13315;48.274;-1.900;2022-12-16T04:02:00;13.25;;;6.95;;
25365;SDS011;13315;48.274;-1.900;2022-12-16T04:04:27;12.25;;;8.02;;
25365;SDS011;13315;48.274;-1.900;2022-12-16T04:06:53;11.48;;;6.82;;
25365;SDS011;13315;48.274;-1.900;2022-12-16T04:09:38;17.20;;;7.28;;
25365;SDS011;13315;48.274;-1.900;2022-12-16T04:12:04;14.70;;;7.68;;
25365;SDS011;13315;48.274;-1.900;2022-12-16T04:14:48;15.50;;;8.02;;
25365;SDS011;13315;48.274;-1.900;2022-12-16T04:17:33;15.68;;;6.93;;
25365;SDS011;13315;48.274;-1.900;2022-12-16T04:20:18;15.70;;;7.60;;
25365;SDS011;13315;48.274;-1.900;2022-12-16T04:23:03;13.07;;;6.53;;
25365;SDS011;13315;48.274;-1.900;2022-12-16T04:25:48;11.60;;;6.88;;
25365;SDS011;13315;48.274;-1.900;2022-12-16T04:28:14;19.80;;;7.03;;
25365;SDS011;13315;48.274;-1.900;2022-12-16T04:30:40;13.13;;;6.90;;
25365;SDS011;13315;48.274;-1.900;2022-12-16T04:33:07;20.10;;;6.90;;
25365;SDS011;13315;48.274;-1.900;2022-12-16T04:35:52;14.23;;;7.13;;
25365;SDS011;13315;48.274;-1.900;2022-12-16T04:38:47;11.45;;;7.15;;
25365;SDS011;13315;48.274;-1.900;2022-12-16T04:41:32;13.57;;;7.15;;
25365;SDS011;13315;48.274;-1.900;2022-12-16T04:44:16;9.30;;;6.28;;
25365;SDS011;13315;48.274;-1.900;2022-12-16T04:47:01;10.07;;;7.45;;
25365;SDS011;13315;48.274;-1.900;2022-12-16T04:49:46;11.02;;;7.30;;
25365;SDS011;13315;48.274;-1.900;2022-12-16T04:52:30;15.65;;;7.03;;
25365;SDS011;13315;48.274;-1.900;2022-12-16T04:55:15;12.30;;;7.05;;
25365;SDS011;13315;48.274;-1.900;2022-12-16T04:58:00;12.32;;;7.20;;
25365;SDS011;13315;48.274;-1.900;2022-12-16T05:00:45;16.02;;;6.75;;
25365;SDS011;13315;48.274;-1.900;2022-12-16T05:03:30;14.55;;;6.88;;
25365;SDS011;13315;48.274;-1.900;2022-12-16T05:06:15;16.30;;;6.85;;
25365;SDS011;13315;48.274;-1.900;2022-12-16T05:09:00;14.68;;;7.05;;
25365;SDS011;13315;48.274;-1.900;2022-12-16T05:11:45;14.52;;;7.00;;
25365;SDS011;13315;48.274;-1.900;2022-12-16T05:14:30;13.23;;;6.35;;
25365;SDS011;13315;48.274;-1.900;2022-12-16T05:17:14;15.00;;;7.10;;
25365;SDS011;13315;48.274;-1.900;2022-12-16T05:19:59;16.83;;;7.22;;
25365;SDS011;13315;48.274;-1.900;2022-12-16T05:22:43;10.55;;;6.35;;
25365;SDS011;13315;48.274;-1.900;2022-12-16T05:25:28;11.52;;;6.88;;
25365;SDS011;13315;48.274;-1.900;2022-12-16T05:28:13;15.98;;;6.82;;
25365;SDS011;13315;48.274;-1.900;2022-12-16T05:30:57;13.20;;;6.93;;
25365;SDS011;13315;48.274;-1.900;2022-12-16T05:33:42;11.65;;;5.97;;
25365;SDS011;13315;48.274;-1.900;2022-12-16T05:36:26;16.70;;;7.50;;
25365;SDS011;13315;48.274;-1.900;2022-12-16T05:39:11;13.13;;;6.38;;
25365;SDS011;13315;48.274;-1.900;2022-12-16T05:41:55;13.60;;;6.78;;
25365;SDS011;13315;48.274;-1.900;2022-12-16T05:44:40;14.07;;;6.70;;
25365;SDS011;13315;48.274;-1.900;2022-12-16T05:47:25;12.20;;;6.95;;
25365;SDS011;13315;48.274;-1.900;2022-12-16T05:50:10;9.23;;;6.63;;
25365;SDS011;13315;48.274;-1.900;2022-12-16T05:52:55;12.88;;;6.75;;
25365;SDS011;13315;48.274;-1.900;2022-12-16T05:55:40;8.63;;;6.28;;
25365;SDS011;13315;48.274;-1.900;2022-12-16T05:58:26;14.48;;;7.47;;
25365;SDS011;13315;48.274;-1.900;2022-12-16T06:01:11;11.27;;;6.20;;
25365;SDS011;13315;48.274;-1.900;2022-12-16T06:03:56;12.10;;;6.63;;
25365;SDS011;13315;48.274;-1.900;2022-12-16T06:06:40;13.68;;;6.82;;
25365;SDS011;13315;48.274;-1.900;2022-12-16T06:09:25;14.32;;;7.10;;
25365;SDS011;13315;48.274;-1.900;2022-12-16T06:12:10;11.05;;;6.38;;
25365;SDS011;13315;48.274;-1.900;2022-12-16T06:14:55;12.48;;;7.32;;
25365;SDS011;13315;48.274;-1.900;2022-12-16T06:17:46;16.83;;;7.65;;
25365;SDS011;13315;48.274;-1.900;2022-12-16T06:20:31;15.60;;;7.20;;
25365;SDS011;13315;48.274;-1.900;2022-12-16T06:23:16;15.02;;;6.85;;
25365;SDS011;13315;48.274;-1.900;2022-12-16T06:26:00;16.90;;;6.85;;
25365;SDS011;13315;48.274;-1.900;2022-12-16T06:28:45;9.40;;;6.13;;
25365;SDS011;13315;48.274;-1.900;2022-12-16T06:31:29;15.18;;;7.03;;
25365;SDS011;13315;48.274;-1.900;2022-12-16T06:34:14;14.63;;;6.95;;
25365;SDS011;13315;48.274;-1.900;2022-12-16T06:36:59;18.27;;;6.72;;
25365;SDS011;13315;48.274;-1.900;2022-12-16T06:39:43;10.23;;;6.57;;
25365;SDS011;13315;48.274;-1.900;2022-12-16T06:42:28;18.42;;;7.30;;
25365;SDS011;13315;48.274;-1.900;2022-12-16T06:45:12;11.57;;;6.47;;
25365;SDS011;13315;48.274;-1.900;2022-12-16T06:47:57;13.50;;;6.93;;
25365;SDS011;13315;48.274;-1.900;2022-12-16T06:50:42;16.02;;;6.82;;
25365;SDS011;13315;48.274;-1.900;2022-12-16T06:53:26;9.95;;;7.05;;
25365;SDS011;13315;48.274;-1.900;2022-12-16T06:56:11;11.68;;;7.20;;
25365;SDS011;13315;48.274;-1.900;2022-12-16T06:58:55;17.05;;;6.57;;
25365;SDS011;13315;48.274;-1.900;2022-12-16T07:01:40;12.88;;;7.30;;
25365;SDS011;13315;48.274;-1.900;2022-12-16T07:04:25;16.33;;;8.30;;
25365;SDS011;13315;48.274;-1.900;2022-12-16T07:07:09;11.80;;;6.80;;
25365;SDS011;13315;48.274;-1.900;2022-12-16T07:09:54;11.45;;;7.00;;
25365;SDS011;13315;48.274;-1.900;2022-12-16T07:12:38;11.55;;;6.55;;
25365;SDS011;13315;48.274;-1.900;2022-12-16T07:15:23;11.32;;;6.90;;
25365;SDS011;13315;48.274;-1.900;2022-12-16T07:18:07;16.00;;;7.93;;
25365;SDS011;13315;48.274;-1.900;2022-12-16T07:20:52;14.55;;;7.63;;
25365;SDS011;13315;48.274;-1.900;2022-12-16T07:23:36;13.45;;;7.07;;
25365;SDS011;13315;48.274;-1.900;2022-12-16T07:26:21;17.08;;;7.95;;
25365;SDS011;13315;48.274;-1.900;2022-12-16T07:29:06;12.82;;;6.93;;
25365;SDS011;13315;48.274;-1.900;2022-12-16T07:31:50;17.65;;;7.40;;
25365;SDS011;13315;48.274;-1.900;2022-12-16T07:34:35;15.70;;;7.47;;
25365;SDS011;13315;48.274;-1.900;2022-12-16T07:37:20;15.27;;;7.63;;
25365;SDS011;13315;48.274;-1.900;2022-12-16T07:40:04;16.85;;;7.90;;
25365;SDS011;13315;48.274;-1.900;2022-12-16T07:42:49;16.45;;;8.02;;
25365;SDS011;13315;48.274;-1.900;2022-12-16T07:45:34;15.40;;;8.43;;
25365;SDS011;13315;48.274;-1.900;2022-12-16T07:48:18;15.10;;;7.78;;
25365;SDS011;13315;48.274;-1.900;2022-12-16T07:51:03;22.30;;;9.02;;
25365;SDS011;13315;48.274;-1.900;2022-12-16T07:53:47;21.67;;;8.75;;
25365;SDS011;13315;48.274;-1.900;2022-12-16T07:56:32;11.82;;;8.25;;
25365;SDS011;13315;48.274;-1.900;2022-12-16T07:59:17;15.60;;;8.15;;
25365;SDS011;13315;48.274;-1.900;2022-12-16T08:02:01;18.60;;;9.32;;
25365;SDS011;13315;48.274;-1.900;2022-12-16T08:04:46;16.88;;;7.72;;
25365;SDS011;13315;48.274;-1.900;2022-12-16T08:07:30;16.10;;;8.27;;
25365;SDS011;13315;48.274;-1.900;2022-12-16T08:10:15;17.88;;;8.60;;
25365;SDS011;13315;48.274;-1.900;2022-12-16T08:13:00;18.85;;;7.97;;
25365;SDS011;13315;48.274;-1.900;2022-12-16T08:15:45;13.93;;;7.60;;
25365;SDS011;13315;48.274;-1.900;2022-12-16T08:18:30;15.07;;;8.77;;
25365;SDS011;13315;48.274;-1.900;2022-12-16T08:21:15;15.75;;;8.38;;
25365;SDS011;13315;48.274;-1.900;2022-12-16T08:23:59;23.08;;;7.68;;
25365;SDS011;13315;48.274;-1.900;2022-12-16T08:26:44;21.23;;;8.07;;
25365;SDS011;13315;48.274;-1.900;2022-12-16T08:29:28;14.15;;;8.15;;
25365;SDS011;13315;48.274;-1.900;2022-12-16T08:32:14;17.05;;;8.77;;
25365;SDS011;13315;48.274;-1.900;2022-12-16T08:34:59;18.92;;;8.38;;
25365;SDS011;13315;48.274;-1.900;2022-12-16T08:37:44;12.98;;;8.43;;
25365;SDS011;13315;48.274;-1.900;2022-12-16T08:40:30;15.93;;;7.80;;
25365;SDS011;13315;48.274;-1.900;2022-12-16T08:43:14;18.00;;;7.85;;
25365;SDS011;13315;48.274;-1.900;2022-12-16T08:45:59;17.00;;;7.65;;
25365;SDS011;13315;48.274;-1.900;2022-12-16T08:48:44;16.55;;;7.65;;
25365;SDS011;13315;48.274;-1.900;2022-12-16T08:51:28;9.15;;;6.70;;
25365;SDS011;13315;48.274;-1.900;2022-12-16T08:54:13;12.60;;;8.02;;
25365;SDS011;13315;48.274;-1.900;2022-12-16T08:56:57;13.82;;;7.22;;
25365;SDS011;13315;48.274;-1.900;2022-12-16T08:59:42;13.57;;;7.82;;
25365;SDS011;13315;48.274;-1.900;2022-12-16T09:02:27;12.68;;;6.30;;
25365;SDS011;13315;48.274;-1.900;2022-12-16T09:05:11;10.93;;;7.43;;
25365;SDS011;13315;48.274;-1.900;2022-12-16T09:08:00;15.50;;;7.55;;
25365;SDS011;13315;48.274;-1.900;2022-12-16T09:10:44;16.70;;;7.60;;
25365;SDS011;13315;48.274;-1.900;2022-12-16T09:13:30;14.85;;;7.78;;
25365;SDS011;13315;48.274;-1.900;2022-12-16T09:16:15;16.73;;;8.23;;
25365;SDS011;13315;48.274;-1.900;2022-12-16T09:19:00;18.33;;;8.90;;
25365;SDS011;13315;48.274;-1.900;2022-12-16T09:21:44;20.17;;;9.13;;
25365;SDS011;13315;48.274;-1.900;2022-12-16T09:24:29;14.30;;;7.88;;
25365;SDS011;13315;48.274;-1.900;2022-12-16T09:27:14;14.05;;;8.02;;
25365;SDS011;13315;48.274;-1.900;2022-12-16T09:29:58;18.20;;;7.75;;
25365;SDS011;13315;48.274;-1.900;2022-12-16T09:32:44;15.63;;;7.32;;
25365;SDS011;13315;48.274;-1.900;2022-12-16T09:35:29;9.70;;;7.22;;
25365;SDS011;13315;48.274;-1.900;2022-12-16T09:38:14;10.73;;;6.35;;
25365;SDS011;13315;48.274;-1.900;2022-12-16T09:44:27;11.07;;;7.07;;
25365;SDS011;13315;48.274;-1.900;2022-12-16T09:47:25;10.70;;;6.95;;
25365;SDS011;13315;48.274;-1.900;2022-12-16T09:50:19;13.68;;;7.20;;
25365;SDS011;13315;48.274;-1.900;2022-12-16T09:53:04;15.10;;;6.60;;
25365;SDS011;13315;48.274;-1.900;2022-12-16T09:55:50;9.75;;;6.03;;
25365;SDS011;13315;48.274;-1.900;2022-12-16T09:58:40;9.43;;;6.07;;
25365;SDS011;13315;48.274;-1.900;2022-12-16T10:01:26;13.70;;;6.30;;
25365;SDS011;13315;48.274;-1.900;2022-12-16T10:04:11;9.88;;;6.20;;
25365;SDS011;13315;48.274;-1.900;2022-12-16T10:06:59;11.50;;;6.50;;
25365;SDS011;13315;48.274;-1.900;2022-12-16T10:24:46;15.18;;;6.30;;
25365;SDS011;13315;48.274;-1.900;2022-12-16T10:27:39;9.27;;;6.13;;
25365;SDS011;13315;48.274;-1.900;2022-12-16T10:30:26;10.07;;;7.00;;
25365;SDS011;13315;48.274;-1.900;2022-12-16T10:33:12;16.48;;;6.43;;
25365;SDS011;13315;48.274;-1.900;2022-12-16T10:35:57;18.80;;;7.10;;
25365;SDS011;13315;48.274;-1.900;2022-12-16T10:38:47;9.32;;;6.97;;
25365;SDS011;13315;48.274;-1.900;2022-12-16T10:41:34;11.48;;;6.93;;
25365;SDS011;13315;48.274;-1.900;2022-12-16T10:44:24;11.00;;;7.20;;
25365;SDS011;13315;48.274;-1.900;2022-12-16T10:47:09;12.57;;;7.40;;
25365;SDS011;13315;48.274;-1.900;2022-12-16T10:49:55;17.35;;;6.90;;
25365;SDS011;13315;48.274;-1.900;2022-12-16T10:52:43;11.77;;;7.03;;
25365;SDS011;13315;48.274;-1.900;2022-12-16T10:58:24;10.45;;;7.05;;
25365;SDS011;13315;48.274;-1.900;2022-12-16T11:01:23;8.75;;;6.38;;
25365;SDS011;13315;48.274;-1.900;2022-12-16T11:10:35;15.07;;;6.93;;
25365;SDS011;13315;48.274;-1.900;2022-12-16T11:16:15;17.40;;;8.95;;
25365;SDS011;13315;48.274;-1.900;2022-12-16T11:19:01;14.52;;;7.50;;
25365;SDS011;13315;48.274;-1.900;2022-12-16T11:21:46;21.08;;;7.97;;
25365;SDS011;13315;48.274;-1.900;2022-12-16T11:24:31;21.30;;;7.90;;
25365;SDS011;13315;48.274;-1.900;2022-12-16T11:30:02;14.73;;;8.38;;
25365;SDS011;13315;48.274;-1.900;2022-12-16T11:32:48;16.00;;;8.02;;
25365;SDS011;13315;48.274;-1.900;2022-12-16T11:35:36;14.73;;;8.35;;
25365;SDS011;13315;48.274;-1.900;2022-12-16T11:41:31;13.50;;;7.57;;
25365;SDS011;13315;48.274;-1.900;2022-12-16T11:47:55;15.20;;;8.80;;
25365;SDS011;13315;48.274;-1.900;2022-12-16T11:50:21;10.50;;;7.35;;
25365;SDS011;13315;48.274;-1.900;2022-12-16T11:53:15;14.65;;;7.80;;
25365;SDS011;13315;48.274;-1.900;2022-12-16T11:56:03;15.35;;;9.18;;
25365;SDS011;13315;48.274;-1.900;2022-12-16T11:58:49;16.42;;;8.65;;
25365;SDS011;13315;48.274;-1.900;2022-12-16T12:04:39;17.63;;;8.52;;
25365;SDS011;13315;48.274;-1.900;2022-12-16T12:07:40;14.55;;;8.55;;
25365;SDS011;13315;48.274;-1.900;2022-12-16T12:13:39;15.43;;;8.95;;
25365;SDS011;13315;48.274;-1.900;2022-12-16T12:19:12;15.80;;;9.63;;
25365;SDS011;13315;48.274;-1.900;2022-12-16T12:22:00;12.38;;;8.52;;
25365;SDS011;13315;48.274;-1.900;2022-12-16T12:24:49;10.65;;;7.80;;
25365;SDS011;13315;48.274;-1.900;2022-12-16T12:30:21;16.80;;;8.60;;
25365;SDS011;13315;48.274;-1.900;2022-12-16T12:50:57;11.07;;;7.35;;
25365;SDS011;13315;48.274;-1.900;2022-12-16T12:56:57;10.73;;;7.80;;
25365;SDS011;13315;48.274;-1.900;2022-12-16T12:59:59;16.45;;;8.18;;
25365;SDS011;13315;48.274;-1.900;2022-12-16T13:05:30;14.05;;;7.20;;
25365;SDS011;13315;48.274;-1.900;2022-12-16T13:11:19;13.52;;;7.18;;
25365;SDS011;13315;48.274;-1.900;2022-12-16T13:17:07;12.45;;;8.05;;
25365;SDS011;13315;48.274;-1.900;2022-12-16T13:19:53;12.98;;;6.55;;
25365;SDS011;13315;48.274;-1.900;2022-12-16T13:22:38;12.70;;;7.20;;
25365;SDS011;13315;48.274;-1.900;2022-12-16T13:25:30;16.08;;;7.35;;
25365;SDS011;13315;48.274;-1.900;2022-12-16T13:28:25;12.85;;;7.00;;
25365;SDS011;13315;48.274;-1.900;2022-12-16T13:31:12;9.88;;;6.72;;
25365;SDS011;13315;48.274;-1.900;2022-12-16T13:34:00;11.93;;;6.55;;
25365;SDS011;13315;48.274;-1.900;2022-12-16T13:39:30;15.38;;;6.30;;
25365;SDS011;13315;48.274;-1.900;2022-12-16T13:42:32;17.58;;;6.35;;
25365;SDS011;13315;48.274;-1.900;2022-12-16T13:54:14;7.97;;;6.00;;
25365;SDS011;13315;48.274;-1.900;2022-12-16T13:56:58;11.18;;;7.07;;
25365;SDS011;13315;48.274;-1.900;2022-12-16T13:59:44;12.70;;;6.57;;
25365;SDS011;13315;48.274;-1.900;2022-12-16T14:02:32;13.43;;;6.22;;
25365;SDS011;13315;48.274;-1.900;2022-12-16T14:05:29;11.27;;;5.82;;
25365;SDS011;13315;48.274;-1.900;2022-12-16T14:08:17;10.40;;;5.32;;
25365;SDS011;13315;48.274;-1.900;2022-12-16T14:11:04;14.93;;;5.70;;
25365;SDS011;13315;48.274;-1.900;2022-12-16T14:13:52;10.18;;;5.03;;
25365;SDS011;13315;48.274;-1.900;2022-12-16T14:19:33;6.95;;;4.30;;
25365;SDS011;13315;48.274;-1.900;2022-12-16T14:25:06;8.20;;;4.95;;
25365;SDS011;13315;48.274;-1.900;2022-12-16T14:27:56;10.55;;;5.80;;
25365;SDS011;13315;48.274;-1.900;2022-12-16T14:30:41;13.02;;;4.68;;
25365;SDS011;13315;48.274;-1.900;2022-12-16T14:33:26;7.95;;;4.20;;
25365;SDS011;13315;48.274;-1.900;2022-12-16T14:39:02;8.43;;;4.55;;
25365;SDS011;13315;48.274;-1.900;2022-12-16T14:41:50;17.23;;;4.88;;
25365;SDS011;13315;48.274;-1.900;2022-12-16T14:44:35;5.50;;;4.07;;
25365;SDS011;13315;48.274;-1.900;2022-12-16T14:47:21;6.25;;;4.10;;
25365;SDS011;13315;48.274;-1.900;2022-12-16T14:50:25;8.55;;;3.90;;
25365;SDS011;13315;48.274;-1.900;2022-12-16T14:53:17;7.40;;;3.75;;
25365;SDS011;13315;48.274;-1.900;2022-12-16T14:56:16;4.53;;;3.45;;
25365;SDS011;13315;48.274;-1.900;2022-12-16T14:59:06;4.53;;;2.65;;
25365;SDS011;13315;48.274;-1.900;2022-12-16T15:01:50;4.57;;;2.83;;
25365;SDS011;13315;48.274;-1.900;2022-12-16T15:04:36;4.68;;;2.47;;
25365;SDS011;13315;48.274;-1.900;2022-12-16T15:07:21;6.43;;;3.10;;
25365;SDS011;13315;48.274;-1.900;2022-12-16T15:10:10;8.88;;;2.70;;
25365;SDS011;13315;48.274;-1.900;2022-12-16T15:12:56;3.25;;;2.17;;
25365;SDS011;13315;48.274;-1.900;2022-12-16T15:15:41;8.63;;;2.63;;
25365;SDS011;13315;48.274;-1.900;2022-12-16T15:21:13;5.28;;;2.60;;
25365;SDS011;13315;48.274;-1.900;2022-12-16T15:23:57;4.20;;;2.45;;
25365;SDS011;13315;48.274;-1.900;2022-12-16T15:26:42;3.78;;;2.30;;
25365;SDS011;13315;48.274;-1.900;2022-12-16T15:29:28;5.45;;;2.53;;
25365;SDS011;13315;48.274;-1.900;2022-12-16T15:35:30;3.38;;;2.28;;
25365;SDS011;13315;48.274;-1.900;2022-12-16T15:40:58;5.15;;;3.08;;
25365;SDS011;13315;48.274;-1.900;2022-12-16T15:43:44;7.57;;;3.03;;
25365;SDS011;13315;48.274;-1.900;2022-12-16T15:46:29;5.00;;;2.47;;
25365;SDS011;13315;48.274;-1.900;2022-12-16T15:52:01;7.93;;;2.78;;
25365;SDS011;13315;48.274;-1.900;2022-12-16T15:54:52;6.32;;;2.80;;
25365;SDS011;13315;48.274;-1.900;2022-12-16T15:57:38;5.72;;;3.00;;
25365;SDS011;13315;48.274;-1.900;2022-12-16T16:03:27;4.15;;;2.95;;
25365;SDS011;13315;48.274;-1.900;2022-12-16T16:09:37;5.15;;;3.60;;
25365;SDS011;13315;48.274;-1.900;2022-12-16T16:12:15;6.93;;;3.90;;
25365;SDS011;13315;48.274;-1.900;2022-12-16T16:15:01;9.38;;;4.22;;
25365;SDS011;13315;48.274;-1.900;2022-12-16T16:17:47;7.32;;;3.78;;
25365;SDS011;13315;48.274;-1.900;2022-12-16T16:20:32;7.43;;;3.45;;
25365;SDS011;13315;48.274;-1.900;2022-12-16T16:23:17;7.75;;;4.15;;
25365;SDS011;13315;48.274;-1.900;2022-12-16T16:26:02;10.32;;;3.90;;
25365;SDS011;13315;48.274;-1.900;2022-12-16T16:28:46;7.00;;;3.50;;
25365;SDS011;13315;48.274;-1.900;2022-12-16T16:31:31;14.10;;;3.92;;
25365;SDS011;13315;48.274;-1.900;2022-12-16T16:34:15;11.20;;;3.97;;
25365;SDS011;13315;48.274;-1.900;2022-12-16T16:37:00;9.73;;;3.63;;
25365;SDS011;13315;48.274;-1.900;2022-12-16T16:39:45;8.30;;;3.38;;
25365;SDS011;13315;48.274;-1.900;2022-12-16T16:42:29;11.02;;;10.02;;
25365;SDS011;13315;48.274;-1.900;2022-12-16T16:45:15;15.23;;;8.93;;
25365;SDS011;13315;48.274;-1.900;2022-12-16T16:50:48;15.85;;;11.00;;
25365;SDS011;13315;48.274;-1.900;2022-12-16T16:53:32;8.57;;;3.65;;
25365;SDS011;13315;48.274;-1.900;2022-12-16T16:56:17;8.07;;;4.32;;
25365;SDS011;13315;48.274;-1.900;2022-12-16T16:59:03;14.38;;;3.65;;
25365;SDS011;13315;48.274;-1.900;2022-12-16T17:01:48;6.78;;;4.47;;
25365;SDS011;13315;48.274;-1.900;2022-12-16T17:04:32;10.43;;;4.47;;
25365;SDS011;13315;48.274;-1.900;2022-12-16T17:07:17;10.02;;;5.45;;
25365;SDS011;13315;48.274;-1.900;2022-12-16T17:10:02;10.90;;;5.50;;
25365;SDS011;13315;48.274;-1.900;2022-12-16T17:12:47;8.18;;;4.60;;
25365;SDS011;13315;48.274;-1.900;2022-12-16T17:15:33;10.02;;;5.72;;
25365;SDS011;13315;48.274;-1.900;2022-12-16T17:18:19;11.55;;;6.80;;
25365;SDS011;13315;48.274;-1.900;2022-12-16T17:21:04;18.83;;;6.38;;
25365;SDS011;13315;48.274;-1.900;2022-12-16T17:23:49;9.80;;;6.80;;
25365;SDS011;13315;48.274;-1.900;2022-12-16T17:26:33;19.75;;;5.68;;
25365;SDS011;13315;48.274;-1.900;2022-12-16T17:29:19;9.77;;;5.20;;
25365;SDS011;13315;48.274;-1.900;2022-12-16T17:32:05;10.35;;;6.22;;
25365;SDS011;13315;48.274;-1.900;2022-12-16T17:34:50;11.70;;;5.65;;
25365;SDS011;13315;48.274;-1.900;2022-12-16T17:37:34;10.63;;;5.25;;
25365;SDS011;13315;48.274;-1.900;2022-12-16T17:40:20;12.32;;;6.10;;
25365;SDS011;13315;48.274;-1.900;2022-12-16T17:43:05;9.88;;;5.75;;
25365;SDS011;13315;48.274;-1.900;2022-12-16T17:46:00;15.82;;;6.22;;
25365;SDS011;13315;48.274;-1.900;2022-12-16T17:48:49;11.85;;;5.47;;
25365;SDS011;13315;48.274;-1.900;2022-12-16T17:51:34;10.23;;;6.47;;
25365;SDS011;13315;48.274;-1.900;2022-12-16T17:54:18;10.50;;;6.25;;
25365;SDS011;13315;48.274;-1.900;2022-12-16T17:57:03;14.88;;;7.28;;
25365;SDS011;13315;48.274;-1.900;2022-12-16T17:59:47;16.05;;;7.35;;
25365;SDS011;13315;48.274;-1.900;2022-12-16T18:02:32;9.35;;;6.65;;
25365;SDS011;13315;48.274;-1.900;2022-12-16T18:05:17;8.75;;;5.78;;
25365;SDS011;13315;48.274;-1.900;2022-12-16T18:08:02;9.65;;;5.32;;
25365;SDS011;13315;48.274;-1.900;2022-12-16T18:10:50;11.35;;;5.20;;
25365;SDS011;13315;48.274;-1.900;2022-12-16T18:13:35;10.25;;;5.75;;
25365;SDS011;13315;48.274;-1.900;2022-12-16T18:16:20;12.13;;;5.60;;
25365;SDS011;13315;48.274;-1.900;2022-12-16T18:19:04;8.15;;;5.50;;
25365;SDS011;13315;48.274;-1.900;2022-12-16T18:21:49;10.35;;;5.90;;
25365;SDS011;13315;48.274;-1.900;2022-12-16T18:24:33;8.48;;;5.20;;
25365;SDS011;13315;48.274;-1.900;2022-12-16T18:27:18;12.50;;;6.07;;
25365;SDS011;13315;48.274;-1.900;2022-12-16T18:30:03;13.13;;;5.07;;